Time;durP1;ratioP1;P1;durP2;ratioP2;P2;SDS_P1;SDS_P2;PMS_P1;PMS_P2;Temp;Humidity;BMP_temperature;BMP_pressure;BME280_temperature;BME280_humidity;BME280_pressure;Samples;Min_cycle;Max_cycle;Signal;HPM_P1;HPM_P2
2022/05/01 00:01:07;;;;;;;25.57;18.07;;;;;;;10.27;98.14;97154.66;5032892;28;20219;-68
2022/05/01 00:03:34;;;;;;;25.03;19.20;;;;;;;10.42;97.44;97152.53;5032435;28;20253;-68
2022/05/01 00:06:01;;;;;;;22.90;17.40;;;;;;;10.18;98.68;97150.72;5032523;28;20171;-67
2022/05/01 00:08:27;;;;;;;23.47;17.80;;;;;;;10.08;99.99;97145.94;5033251;28;20205;-67
2022/05/01 00:10:53;;;;;;;25.57;18.17;;;;;;;9.96;100.00;97139.78;5032963;28;20182;-67
2022/05/01 00:13:21;;;;;;;25.37;18.40;;;;;;;10.06;100.00;97147.97;5032819;28;20183;-68
2022/05/01 00:15:46;;;;;;;27.37;19.47;;;;;;;9.91;100.00;97152.72;5015491;28;20183;-68
2022/05/01 00:18:12;;;;;;;29.77;20.10;;;;;;;10.21;99.11;97155.50;5033017;28;20204;-69
2022/05/01 00:20:37;;;;;;;24.80;19.00;;;;;;;9.94;100.00;97155.69;5033161;28;20179;-68
2022/05/01 00:23:02;;;;;;;24.37;18.77;;;;;;;9.79;100.00;97152.59;5033323;28;20187;-68
2022/05/01 00:25:28;;;;;;;25.73;20.07;;;;;;;9.83;100.00;97155.59;5032976;28;20186;-69
2022/05/01 00:27:54;;;;;;;26.13;18.87;;;;;;;9.89;100.00;97155.53;5032229;28;20190;-68
2022/05/01 00:30:20;;;;;;;28.13;19.83;;;;;;;10.06;100.00;97158.44;5033268;28;20240;-68
2022/05/01 00:38:13;;;;;;;29.30;19.43;;;;;;;10.20;98.42;97149.47;5032885;28;20652;-67
2022/05/01 00:40:39;;;;;;;27.33;20.30;;;;;;;9.88;100.00;97151.31;5032770;28;20182;-67
2022/05/01 00:43:04;;;;;;;26.30;18.93;;;;;;;9.96;99.89;97151.06;5032810;28;20642;-70
2022/05/01 00:45:31;;;;;;;26.60;20.37;;;;;;;9.81;100.00;97149.75;5032294;28;20175;-68
2022/05/01 00:47:57;;;;;;;27.27;19.60;;;;;;;9.88;100.00;97145.28;5032606;28;20546;-68
2022/05/01 00:50:22;;;;;;;28.13;20.97;;;;;;;10.15;99.00;97151.91;5032710;28;20178;-69
2022/05/01 00:52:48;;;;;;;31.20;20.37;;;;;;;10.01;99.31;97153.84;5032239;28;20664;-69
2022/05/01 00:55:13;;;;;;;29.40;20.57;;;;;;;9.93;99.71;97158.53;5032057;28;20576;-71
2022/05/01 00:57:39;;;;;;;30.57;20.20;;;;;;;10.20;98.10;97154.72;5032575;28;20186;-67
2022/05/01 01:00:05;;;;;;;28.30;20.50;;;;;;;9.95;99.29;97154.69;5032472;28;20182;-68
2022/05/01 01:02:34;;;;;;;28.53;20.37;;;;;;;9.83;99.90;97150.34;5014616;28;20186;-70
2022/05/01 01:04:59;;;;;;;31.47;20.50;;;;;;;9.70;100.00;97150.44;5032530;28;20237;-68
2022/05/01 01:07:27;;;;;;;30.53;20.27;;;;;;;9.94;100.00;97150.47;5032190;28;20175;-67
2022/05/01 01:09:53;;;;;;;29.23;20.87;;;;;;;9.95;99.54;97141.59;5032567;28;20187;-67
2022/05/01 01:15:09;;;;;;;26.77;20.40;;;;;;;9.97;99.28;97136.94;5032577;28;20208;-67
2022/05/01 01:17:41;;;;;;;29.60;19.87;;;;;;;10.01;99.07;97134.72;5032215;28;20187;-68
2022/05/01 01:20:18;;;;;;;30.43;20.07;;;;;;;10.10;98.73;97132.59;5032536;28;20256;-67
2022/05/01 01:22:49;;;;;;;26.53;19.03;;;;;;;9.99;98.65;97132.28;5032558;28;20178;-67
2022/05/01 01:25:17;;;;;;;34.17;20.43;;;;;;;9.90;99.50;97128.34;5032462;28;20209;-67
2022/05/01 01:27:43;;;;;;;31.53;21.30;;;;;;;9.87;99.38;97133.19;5031618;28;20619;-68
2022/05/01 01:32:54;;;;;;;31.30;20.37;;;;;;;9.84;99.40;97126.59;5032479;28;20209;-67
2022/05/01 01:35:24;;;;;;;31.47;19.97;;;;;;;9.75;100.00;97129.69;5032150;28;20688;-69
2022/05/01 01:37:54;;;;;;;33.67;22.07;;;;;;;9.60;100.00;97125.53;5032154;28;20209;-69
2022/05/01 01:40:27;;;;;;;29.50;19.90;;;;;;;9.96;99.47;97127.50;5035713;28;20977;-67
2022/05/01 01:42:55;;;;;;;30.67;20.80;;;;;;;9.82;99.59;97127.81;5036302;28;20657;-68
2022/05/01 01:45:21;;;;;;;29.60;20.60;;;;;;;9.88;100.00;97122.53;5035900;28;20273;-68
2022/05/01 01:47:49;;;;;;;30.77;20.20;;;;;;;9.97;99.50;97129.06;5034950;28;20195;-67
2022/05/01 01:50:18;;;;;;;32.23;21.00;;;;;;;9.90;99.35;97127.56;5036350;28;20261;-68
2022/05/01 01:52:47;;;;;;;33.67;21.97;;;;;;;10.04;98.64;97118.56;5035951;28;20187;-67
2022/05/01 01:55:17;;;;;;;34.13;21.23;;;;;;;9.83;99.05;97122.34;5017874;28;20522;-68
2022/05/01 01:57:45;;;;;;;34.27;22.10;;;;;;;9.85;99.26;97130.81;5035500;28;20210;-68
2022/05/01 02:00:12;;;;;;;30.87;21.17;;;;;;;9.73;100.00;97126.47;5035898;28;20273;-68
2022/05/01 02:02:38;;;;;;;34.37;22.20;;;;;;;9.73;100.00;97118.63;5035628;28;20206;-68
2022/05/01 02:05:05;;;;;;;31.50;22.00;;;;;;;9.69;100.00;97112.22;5035620;28;20622;-67
2022/05/01 02:07:31;;;;;;;35.53;22.33;;;;;;;9.93;99.04;97111.41;5035426;28;20649;-69
2022/05/01 02:09:57;;;;;;;33.07;20.63;;;;;;;9.94;98.87;97115.63;5035280;28;20197;-68
2022/05/01 02:12:23;;;;;;;34.03;21.10;;;;;;;10.00;99.13;97105.09;5035675;28;20187;-66
2022/05/01 02:14:48;;;;;;;31.40;22.17;;;;;;;9.94;99.10;97110.38;5017692;28;20556;-68
2022/05/01 02:17:14;;;;;;;31.40;21.90;;;;;;;9.92;99.49;97104.56;5035442;28;20628;-68
2022/05/01 02:19:39;;;;;;;32.17;22.30;;;;;;;9.96;99.02;97111.00;5035116;28;20230;-67
2022/05/01 02:22:05;;;;;;;38.60;22.57;;;;;;;9.96;99.16;97108.38;5017421;28;20270;-68
2022/05/01 02:24:31;;;;;;;32.43;20.97;;;;;;;9.98;98.57;97112.34;5034213;28;20183;-66
2022/05/01 02:26:56;;;;;;;34.17;21.93;;;;;;;9.89;99.24;97105.00;5035005;28;20182;-67
2022/05/01 02:29:22;;;;;;;32.90;21.43;;;;;;;9.91;99.17;97113.44;5034731;28;20533;-68
2022/05/01 02:31:53;;;;;;;35.27;21.17;;;;;;;9.65;99.99;97098.72;5034876;28;20301;-69
2022/05/01 02:34:20;;;;;;;34.23;22.10;;;;;;;9.86;99.49;97100.19;5034757;28;20680;-68
2022/05/01 02:36:45;;;;;;;33.93;21.60;;;;;;;9.89;98.16;97091.91;5034632;28;20217;-67
2022/05/01 02:39:11;;;;;;;34.90;22.00;;;;;;;9.89;98.64;97087.47;5034771;28;20284;-68
2022/05/01 02:41:36;;;;;;;29.67;21.60;;;;;;;9.78;98.53;97090.78;5035000;28;20306;-68
2022/05/01 02:44:03;;;;;;;34.23;20.93;;;;;;;9.75;98.95;97079.94;5034504;28;20189;-69
2022/05/01 02:46:28;;;;;;;33.87;22.17;;;;;;;9.71;99.24;97084.78;5026377;28;20186;-69
2022/05/01 02:48:54;;;;;;;32.67;20.80;;;;;;;9.57;99.61;97080.69;5034137;28;20185;-68
2022/05/01 02:51:19;;;;;;;36.53;22.47;;;;;;;9.65;99.38;97087.47;5033994;28;20271;-69
2022/05/01 02:53:45;;;;;;;34.73;21.33;;;;;;;9.46;100.00;97084.78;5016867;28;20248;-68
2022/05/01 02:56:10;;;;;;;32.37;21.67;;;;;;;9.45;100.00;97090.22;5016806;28;20664;-69
2022/05/01 02:58:35;;;;;;;37.67;22.50;;;;;;;9.39;100.00;97089.25;5034473;28;20560;-68
2022/05/01 03:01:01;;;;;;;36.37;22.27;;;;;;;9.58;99.93;97083.06;5034164;28;20250;-69
2022/05/01 03:03:27;;;;;;;30.63;20.53;;;;;;;9.66;99.36;97089.88;5033799;28;20254;-68
2022/05/01 03:05:54;;;;;;;32.37;21.80;;;;;;;9.74;99.33;97086.19;5034114;28;20181;-69
2022/05/01 03:08:20;;;;;;;34.33;21.60;;;;;;;9.81;98.78;97090.34;5034530;28;20190;-68
2022/05/01 03:10:46;;;;;;;35.27;21.60;;;;;;;9.66;99.50;97084.63;5033777;28;20541;-68
2022/05/01 03:13:12;;;;;;;34.57;21.13;;;;;;;9.68;99.58;97079.19;5034068;28;20193;-69
2022/05/01 03:15:37;;;;;;;38.93;22.60;;;;;;;9.56;100.00;97082.50;5033974;28;20183;-68
2022/05/01 03:23:32;;;;;;;38.37;21.77;;;;;;;9.37;100.00;97080.00;5033747;28;20229;-69
2022/05/01 03:25:58;;;;;;;36.90;21.23;;;;;;;9.21;100.00;97081.31;5033893;28;20186;-69
2022/05/01 03:28:24;;;;;;;30.20;21.17;;;;;;;9.21;100.00;97081.31;5016317;28;20537;-69
2022/05/01 03:30:50;;;;;;;31.43;21.63;;;;;;;9.53;100.00;97082.91;5033295;28;20278;-70
2022/05/01 03:33:16;;;;;;;37.87;22.57;;;;;;;9.41;100.00;97078.59;5033950;28;20625;-68
2022/05/01 03:35:42;;;;;;;37.40;24.33;;;;;;;9.33;100.00;97086.69;5033914;28;20193;-68
2022/05/01 03:38:08;;;;;;;40.73;24.17;;;;;;;9.26;100.00;97083.28;5033697;28;20257;-68
2022/05/01 03:40:36;;;;;;;38.43;24.53;;;;;;;9.27;100.00;97090.13;5033654;28;20183;-68
2022/05/01 03:43:03;;;;;;;35.10;23.73;;;;;;;9.32;100.00;97085.88;5033766;28;20202;-71
2022/05/01 03:45:28;;;;;;;40.00;24.60;;;;;;;9.27;100.00;97084.91;5033205;28;20197;-70
2022/05/01 03:47:54;;;;;;;40.37;24.73;;;;;;;9.36;100.00;97087.03;5025535;28;20179;-68
2022/05/01 03:50:19;;;;;;;38.37;24.37;;;;;;;9.24;100.00;97083.53;5033306;28;20258;-69
2022/05/01 03:52:45;;;;;;;35.60;24.63;;;;;;;9.19;100.00;97081.50;5033047;28;20201;-68
2022/05/01 03:55:11;;;;;;;45.93;25.30;;;;;;;9.40;100.00;97090.06;5032265;28;20185;-68
2022/05/01 03:57:37;;;;;;;41.57;24.57;;;;;;;9.17;100.00;97087.97;5033352;28;20194;-68
2022/05/01 04:00:05;;;;;;;41.20;25.30;;;;;;;9.11;100.00;97084.41;5015326;28;20206;-69
2022/05/01 04:02:30;;;;;;;42.27;24.57;;;;;;;9.21;100.00;97083.13;5011387;28;20548;-68
2022/05/01 04:04:57;;;;;;;38.83;23.87;;;;;;;9.31;100.00;97075.63;5032972;28;20305;-70
2022/05/01 04:07:23;;;;;;;40.97;26.07;;;;;;;9.35;100.00;97077.63;5033255;28;20266;-68
2022/05/01 04:09:49;;;;;;;41.00;25.73;;;;;;;9.13;100.00;97074.53;5032997;28;20190;-68
2022/05/01 04:12:15;;;;;;;41.43;24.33;;;;;;;9.12;100.00;97079.97;5033124;28;20206;-68
2022/05/01 04:14:40;;;;;;;43.60;25.30;;;;;;;9.30;100.00;97087.13;5033547;28;20225;-68
2022/05/01 04:17:05;;;;;;;38.73;23.17;;;;;;;9.08;100.00;97086.63;5032979;28;20185;-67
2022/05/01 04:19:31;;;;;;;41.77;24.67;;;;;;;9.07;100.00;97079.81;5032691;28;20221;-69
2022/05/01 04:21:57;;;;;;;41.87;24.97;;;;;;;9.03;100.00;97083.81;5033011;28;20182;-69
2022/05/01 04:24:23;;;;;;;48.17;27.50;;;;;;;9.07;100.00;97085.03;5032645;28;20213;-68
2022/05/01 04:26:48;;;;;;;42.60;26.53;;;;;;;8.86;100.00;97080.13;5033035;28;20182;-69
2022/05/01 04:31:58;;;;;;;42.13;26.50;;;;;;;8.86;100.00;97085.34;5032904;28;20194;-68
2022/05/01 04:34:23;;;;;;;46.17;26.43;;;;;;;8.88;100.00;97088.53;5032538;28;20589;-67
2022/05/01 04:36:48;;;;;;;39.20;25.83;;;;;;;9.04;100.00;97088.03;5032729;28;20170;-69
2022/05/01 04:39:14;;;;;;;43.87;26.53;;;;;;;9.11;100.00;97087.00;5032702;28;20202;-68
2022/05/01 04:41:39;;;;;;;41.87;25.90;;;;;;;9.05;100.00;97090.47;5032322;28;20182;-69
2022/05/01 04:44:04;;;;;;;41.23;25.07;;;;;;;8.99;100.00;97090.50;5032433;28;20195;-69
2022/05/01 04:46:30;;;;;;;46.63;26.57;;;;;;;9.16;100.00;97096.84;5031905;28;20213;-69
2022/05/01 04:48:56;;;;;;;37.63;23.83;;;;;;;9.19;100.00;97099.81;5032706;28;20182;-69
2022/05/01 04:51:22;;;;;;;38.10;24.10;;;;;;;9.27;100.00;97097.97;5032768;28;20229;-68
2022/05/01 04:53:47;;;;;;;41.47;25.70;;;;;;;9.26;100.00;97102.41;5032600;28;20233;-68
2022/05/01 04:58:56;;;;;;;44.30;24.00;;;;;;;9.47;99.79;97104.69;5032378;28;20248;-69
2022/05/01 05:01:22;;;;;;;38.33;23.17;;;;;;;9.46;100.00;97107.53;5014149;28;20191;-69
2022/05/01 05:03:47;;;;;;;37.40;23.90;;;;;;;9.48;100.00;97108.91;5032375;28;20218;-67
2022/05/01 05:06:12;;;;;;;35.80;22.23;;;;;;;9.36;99.99;97107.97;5014971;28;20183;-69
2022/05/01 05:11:21;;;;;;;34.20;22.40;;;;;;;9.38;99.62;97119.03;5023051;28;20204;-68
2022/05/01 05:13:47;;;;;;;37.07;23.13;;;;;;;9.30;99.87;97119.31;5034319;28;20178;-68
2022/05/01 05:16:13;;;;;;;33.93;21.97;;;;;;;9.22;100.00;97121.34;5036547;28;20175;-69
2022/05/01 05:18:40;;;;;;;36.30;22.63;;;;;;;9.31;100.00;97117.47;5036295;28;20194;-68
2022/05/01 05:21:08;;;;;;;37.10;22.83;;;;;;;9.31;100.00;97126.13;5036508;28;20183;-68
2022/05/01 05:23:34;;;;;;;38.70;24.03;;;;;;;9.31;100.00;97122.69;5036163;28;20186;-68
2022/05/01 05:25:59;;;;;;;38.53;22.00;;;;;;;9.27;100.00;97130.16;5036213;28;20186;-69
2022/05/01 05:28:25;;;;;;;31.70;22.60;;;;;;;9.22;100.00;97129.19;5035533;28;20618;-70
2022/05/01 05:30:51;;;;;;;35.97;23.57;;;;;;;9.10;100.00;97129.84;5035788;28;20179;-69
2022/05/01 05:33:18;;;;;;;34.73;23.23;;;;;;;9.07;100.00;97132.91;5036051;28;20271;-69
2022/05/01 05:35:43;;;;;;;35.53;23.23;;;;;;;9.19;100.00;97136.44;5018497;28;20186;-68
2022/05/01 05:38:08;;;;;;;34.70;23.33;;;;;;;9.39;100.00;97138.97;5035490;28;20202;-67
2022/05/01 05:40:34;;;;;;;35.43;24.00;;;;;;;9.52;99.17;97141.50;5035509;28;20174;-68
2022/05/01 05:42:59;;;;;;;35.53;23.47;;;;;;;9.45;99.32;97137.31;5035443;28;20186;-68
2022/05/01 05:45:25;;;;;;;33.47;23.00;;;;;;;9.42;99.52;97138.53;5035273;28;20186;-68
2022/05/01 05:47:50;;;;;;;36.67;22.83;;;;;;;9.55;99.28;97143.69;5035316;28;20190;-68
2022/05/01 05:50:16;;;;;;;36.83;23.40;;;;;;;9.22;100.00;97145.69;5017890;28;20605;-69
2022/05/01 05:52:43;;;;;;;34.80;23.37;;;;;;;9.49;99.85;97141.91;5035918;28;20179;-69
2022/05/01 05:55:08;;;;;;;35.17;23.23;;;;;;;9.38;99.91;97141.78;5035539;28;20245;-68
2022/05/01 05:57:34;;;;;;;40.70;24.53;;;;;;;9.34;100.00;97143.22;5034800;28;20179;-69
2022/05/01 06:00:00;;;;;;;36.87;23.70;;;;;;;9.54;99.18;97141.28;5034905;28;20191;-69
2022/05/01 06:02:26;;;;;;;34.97;23.13;;;;;;;9.33;100.00;97139.00;5035078;28;20237;-68
2022/05/01 06:04:51;;;;;;;34.63;23.37;;;;;;;9.40;100.00;97137.16;5034951;28;20230;-68
2022/05/01 06:07:17;;;;;;;33.83;22.73;;;;;;;9.46;99.65;97137.13;5035153;28;20668;-70
2022/05/01 06:09:42;;;;;;;34.10;21.93;;;;;;;9.67;99.34;97133.34;5035316;28;20187;-69
2022/05/01 06:12:09;;;;;;;34.77;21.97;;;;;;;9.58;99.47;97132.78;5035073;28;20555;-69
2022/05/01 06:14:35;;;;;;;37.20;22.93;;;;;;;9.85;98.58;97133.44;5034332;28;20202;-69
2022/05/01 06:17:00;;;;;;;41.87;23.47;;;;;;;10.07;96.53;97136.47;5035048;28;20624;-68
2022/05/01 06:19:26;;;;;;;33.33;21.77;;;;;;;9.92;96.53;97133.34;5016992;28;20206;-69
2022/05/01 06:21:51;;;;;;;35.90;21.43;;;;;;;9.86;97.80;97136.84;5034942;28;20186;-68
2022/05/01 06:24:16;;;;;;;33.77;22.07;;;;;;;10.00;96.28;97149.63;5034685;28;20232;-67
2022/05/01 06:26:42;;;;;;;31.00;21.00;;;;;;;9.99;95.47;97136.72;5034972;28;20187;-69
2022/05/01 06:29:08;;;;;;;35.73;21.20;;;;;;;9.92;96.21;97133.34;5035078;28;20226;-69
2022/05/01 06:31:34;;;;;;;32.87;19.90;;;;;;;9.93;96.60;97138.38;5034870;28;20232;-69
2022/05/01 06:34:00;;;;;;;33.13;21.70;;;;;;;9.92;95.31;97143.81;5034801;28;20202;-67
2022/05/01 06:36:25;;;;;;;31.77;21.57;;;;;;;9.91;95.40;97140.44;5034946;28;20201;-68
2022/05/01 06:38:51;;;;;;;32.87;20.90;;;;;;;9.97;94.70;97139.56;5017180;28;20616;-69
2022/05/01 06:41:17;;;;;;;28.90;18.80;;;;;;;10.09;94.67;97141.47;5035057;28;20548;-69
2022/05/01 06:43:42;;;;;;;31.53;20.37;;;;;;;10.32;93.25;97134.66;5034297;28;20233;-67
2022/05/01 06:46:08;;;;;;;30.30;20.83;;;;;;;10.68;90.93;97133.91;5034352;28;20183;-69
2022/05/01 06:48:33;;;;;;;31.20;19.57;;;;;;;10.65;90.68;97141.38;5034485;28;20183;-71
2022/05/01 06:50:59;;;;;;;27.50;19.27;;;;;;;10.77;91.06;97137.81;5034553;28;20179;-71
2022/05/01 06:53:24;;;;;;;27.43;19.20;;;;;;;10.51;92.57;97137.31;5016314;28;20595;-69
2022/05/01 06:55:50;;;;;;;26.43;19.20;;;;;;;10.42;91.72;97139.41;5034689;28;20645;-68
2022/05/01 06:58:15;;;;;;;27.33;19.03;;;;;;;10.57;91.57;97139.88;5016472;28;20286;-69
2022/05/01 07:00:41;;;;;;;23.40;18.40;;;;;;;10.86;90.78;97138.34;5033192;28;20602;-67
2022/05/01 07:03:06;;;;;;;27.23;18.23;;;;;;;10.93;90.75;97146.13;5033983;28;20194;-68
2022/05/01 07:05:32;;;;;;;24.93;18.07;;;;;;;11.32;88.36;97136.94;5033573;28;20183;-69
2022/05/01 07:07:57;;;;;;;25.37;17.47;;;;;;;11.19;87.89;97137.94;5034439;28;20210;-68
2022/05/01 07:10:23;;;;;;;39.43;18.10;;;;;;;11.18;87.26;97139.75;5033443;28;20182;-71
2022/05/01 07:12:49;;;;;;;27.87;18.30;;;;;;;11.21;87.43;97147.19;5033859;28;20209;-69
2022/05/01 07:15:15;;;;;;;23.80;16.77;;;;;;;11.42;86.64;97145.91;5016021;28;20213;-70
2022/05/01 07:17:40;;;;;;;22.43;17.47;;;;;;;11.44;86.29;97150.94;5033910;28;20270;-70
2022/05/01 07:20:07;;;;;;;25.27;17.80;;;;;;;11.07;87.86;97151.00;5034094;28;20309;-77
2022/05/01 07:22:33;;;;;;;26.37;17.67;;;;;;;11.17;88.97;97147.84;5034137;28;20241;-77
2022/05/01 07:24:59;;;;;;;25.07;17.93;;;;;;;11.50;86.74;97148.22;5016014;28;20174;-71
2022/05/01 07:27:24;;;;;;;21.90;16.80;;;;;;;11.84;85.10;97154.63;5033749;28;20194;-71
2022/05/01 07:29:49;;;;;;;21.67;15.43;;;;;;;12.00;83.40;97151.34;5033133;28;20201;-70
2022/05/01 07:32:15;;;;;;;20.13;14.60;;;;;;;11.70;83.32;97155.81;5033647;28;20229;-70
2022/05/01 07:34:41;;;;;;;20.33;14.63;;;;;;;11.68;82.27;97156.03;5019067;28;20554;-69
2022/05/01 07:37:06;;;;;;;21.17;15.30;;;;;;;11.99;81.53;97155.00;5033458;28;20182;-70
2022/05/01 07:39:32;;;;;;;22.43;15.57;;;;;;;11.96;80.63;97149.41;5015938;28;20217;-71
2022/05/01 07:41:58;;;;;;;22.13;15.80;;;;;;;11.95;80.99;97153.03;5033264;28;20182;-70
2022/05/01 07:44:24;;;;;;;19.20;14.90;;;;;;;12.11;81.26;97148.94;5033111;28;20677;-69
2022/05/01 07:46:51;;;;;;;20.83;15.07;;;;;;;12.26;80.28;97146.69;5032027;28;20285;-69
2022/05/01 07:49:17;;;;;;;18.57;13.57;;;;;;;12.71;77.93;97147.69;5033513;28;20594;-69
2022/05/01 07:51:42;;;;;;;17.97;13.97;;;;;;;12.54;77.08;97143.38;5033231;28;20257;-69
2022/05/01 07:54:08;;;;;;;16.77;13.53;;;;;;;12.65;77.46;97143.34;5015401;28;20263;-71
2022/05/01 07:56:34;;;;;;;18.93;13.90;;;;;;;12.90;74.43;97148.34;5032788;28;20594;-69
2022/05/01 07:59:00;;;;;;;22.17;13.97;;;;;;;12.58;75.94;97144.50;5032537;28;20230;-68
2022/05/01 08:01:26;;;;;;;17.73;13.40;;;;;;;12.85;75.13;97145.63;5032939;28;20277;-70
2022/05/01 08:06:36;;;;;;;18.20;13.70;;;;;;;12.75;75.42;97150.69;5032967;28;20261;-70
2022/05/01 08:09:03;;;;;;;18.43;14.47;;;;;;;12.48;77.14;97147.72;5032959;28;20653;-70
2022/05/01 08:11:29;;;;;;;19.50;13.53;;;;;;;12.73;75.92;97147.47;5032970;28;20194;-72
2022/05/01 08:13:55;;;;;;;19.10;14.67;;;;;;;12.45;76.57;97145.53;5032567;28;20236;-72
2022/05/01 08:16:21;;;;;;;19.13;13.67;;;;;;;13.13;74.69;97144.91;5033252;28;20179;-70
2022/05/01 08:21:32;;;;;;;18.93;14.20;;;;;;;12.53;75.89;97141.78;5033228;28;20244;-69
2022/05/01 08:23:59;;;;;;;17.00;13.07;;;;;;;12.65;75.89;97142.56;5016946;28;20186;-70
2022/05/01 08:26:25;;;;;;;17.17;13.43;;;;;;;12.65;75.35;97145.19;5033248;28;20183;-70
2022/05/01 08:28:54;;;;;;;19.27;14.30;;;;;;;12.45;76.09;97145.53;5032618;28;20193;-70
2022/05/01 08:31:21;;;;;;;18.17;14.10;;;;;;;12.21;79.10;97144.72;5033261;28;20237;-70
2022/05/01 08:33:47;;;;;;;19.50;14.87;;;;;;;12.31;79.25;97141.56;5031869;28;20725;-71
2022/05/01 08:36:12;;;;;;;19.03;14.40;;;;;;;12.08;79.95;97140.50;5032548;28;20264;-70
2022/05/01 08:38:38;;;;;;;18.77;14.33;;;;;;;12.55;77.59;97132.63;5032156;28;20559;-71
2022/05/01 08:41:05;;;;;;;18.80;14.43;;;;;;;12.47;76.83;97138.25;5015037;28;20190;-71
2022/05/01 08:43:31;;;;;;;18.93;14.47;;;;;;;12.73;75.98;97136.94;5014931;28;20182;-71
2022/05/01 08:46:19;;;;;;;18.57;13.90;;;;;;;12.93;74.75;97139.97;5014469;28;20240;-71
2022/05/01 08:49:04;;;;;;;17.37;13.83;;;;;;;13.10;74.31;97143.50;5031850;28;20201;-70
2022/05/01 08:51:35;;;;;;;18.53;13.23;;;;;;;12.85;75.12;97143.00;5013769;28;20193;-71
2022/05/01 08:54:04;;;;;;;20.37;13.53;;;;;;;12.74;75.39;97144.63;5032776;28;20225;-72
2022/05/01 08:56:32;;;;;;;19.20;14.33;;;;;;;12.61;75.76;97142.22;5032076;28;20244;-71
2022/05/01 08:58:59;;;;;;;20.00;14.00;;;;;;;12.26;76.42;97149.31;5032238;28;20211;-71
2022/05/01 09:01:24;;;;;;;18.30;14.00;;;;;;;12.31;76.32;97147.63;5016421;28;20549;-71
2022/05/01 09:03:51;;;;;;;17.50;12.67;;;;;;;12.30;76.23;97153.09;5031991;28;20254;-71
2022/05/01 09:06:16;;;;;;;17.60;13.47;;;;;;;12.66;74.47;97144.94;5014272;28;20190;-71
2022/05/01 09:08:42;;;;;;;17.03;12.77;;;;;;;12.78;74.10;97135.22;5031611;28;20204;-72
2022/05/01 09:13:52;;;;;;;15.40;12.13;;;;;;;12.61;75.21;97138.78;5031289;28;20684;-71
2022/05/01 09:16:18;;;;;;;18.27;13.03;;;;;;;13.17;73.02;97143.38;5031652;28;20218;-72
2022/05/01 09:18:47;;;;;;;17.47;13.10;;;;;;;13.11;72.84;97149.56;5031761;28;20209;-72
2022/05/01 09:21:13;;;;;;;16.43;11.90;;;;;;;13.31;70.83;97148.16;5032206;28;20194;-72
2022/05/01 09:23:48;;;;;;;15.17;12.30;;;;;;;13.41;70.39;97150.19;5032161;28;20655;-72
2022/05/01 09:26:20;;;;;;;13.50;11.37;;;;;;;14.28;67.28;97144.53;5032436;28;20228;-71
2022/05/01 09:28:54;;;;;;;13.17;10.87;;;;;;;14.51;65.97;97142.53;5032491;28;20197;-72
2022/05/01 09:31:46;;;;;;;17.17;12.43;;;;;;;14.44;65.62;97156.91;5031954;28;20641;-72
2022/05/01 09:34:29;;;;;;;18.20;11.80;;;;;;;13.53;68.54;97142.25;5032120;28;20233;-72
2022/05/01 09:36:59;;;;;;;15.67;11.33;;;;;;;13.76;67.41;97149.22;5032327;28;20253;-72
2022/05/01 09:39:30;;;;;;;16.13;12.17;;;;;;;14.19;66.04;97143.34;5013644;28;22082;-73
2022/05/01 09:42:13;;;;;;;14.93;11.97;;;;;;;14.09;66.64;97139.50;5019015;28;20175;-73
2022/05/01 09:44:38;;;;;;;17.00;12.20;;;;;;;13.82;68.56;97140.38;5031595;28;20181;-72
2022/05/01 09:47:04;;;;;;;18.30;12.10;;;;;;;14.20;66.38;97142.31;5013517;28;20641;-74
2022/05/01 09:49:47;;;;;;;17.00;12.07;;;;;;;13.89;66.46;97143.63;5031759;28;20183;-73
2022/05/01 09:52:12;;;;;;;15.33;12.33;;;;;;;13.80;69.65;97137.16;5032193;28;20214;-72
2022/05/01 09:54:37;;;;;;;15.60;11.53;;;;;;;14.32;65.81;97140.38;5031693;28;20641;-77
2022/05/01 09:57:03;;;;;;;13.23;10.57;;;;;;;14.92;64.35;97140.44;5032003;28;20643;-74
2022/05/01 09:59:29;;;;;;;14.20;10.43;;;;;;;15.03;60.95;97144.00;5033423;28;20615;-76
2022/05/01 10:01:55;;;;;;;13.47;11.00;;;;;;;14.72;62.46;97140.97;5017876;28;20649;-75
2022/05/01 10:04:23;;;;;;;15.93;10.50;;;;;;;14.87;60.80;97140.38;5034919;28;20234;-77
2022/05/01 10:06:52;;;;;;;14.13;10.20;;;;;;;14.61;61.91;97131.31;5035296;28;20187;-74
2022/05/01 10:09:18;;;;;;;13.17;9.97;;;;;;;14.02;63.58;97136.22;5035130;28;20191;-74
2022/05/01 10:11:45;;;;;;;14.27;10.90;;;;;;;13.84;64.53;97133.81;5035985;28;20931;-75
2022/05/01 10:14:11;;;;;;;13.67;10.57;;;;;;;14.85;62.24;97129.25;5017565;28;20274;-76
2022/05/01 10:16:40;;;;;;;12.23;9.97;;;;;;;15.20;60.20;97124.41;5035282;28;20224;-75
2022/05/01 10:19:06;;;;;;;12.93;10.77;;;;;;;15.56;58.91;97120.31;5035199;28;20191;-74
2022/05/01 10:21:34;;;;;;;11.70;9.20;;;;;;;15.98;57.56;97117.78;5035625;28;20269;-73
2022/05/01 10:24:01;;;;;;;12.90;10.33;;;;;;;15.92;57.01;97113.50;5017048;28;20186;-73
2022/05/01 10:26:34;;;;;;;14.20;10.30;;;;;;;16.12;56.00;97112.88;5035222;28;20190;-73
2022/05/01 10:29:02;;;;;;;12.63;10.10;;;;;;;16.59;55.10;97115.59;5017995;28;20209;-74
2022/05/01 10:32:23;;;;;;;12.87;9.47;;;;;;;16.50;54.50;97109.94;5034887;28;20261;-73
2022/05/01 10:35:02;;;;;;;12.20;9.83;;;;;;;16.58;53.21;97109.47;5034763;28;20175;-74
2022/05/01 10:38:06;;;;;;;14.53;10.13;;;;;;;16.52;53.61;97109.69;5034755;28;20629;-74
2022/05/01 10:40:50;;;;;;;11.10;9.70;;;;;;;16.62;53.86;97110.56;5029747;28;20324;-74
2022/05/01 10:43:25;;;;;;;11.37;9.17;;;;;;;16.70;52.59;97106.66;5034951;28;20171;-73
2022/05/01 10:45:52;;;;;;;13.73;10.67;;;;;;;16.43;54.07;97101.44;5027355;28;20205;-71
2022/05/01 10:48:29;;;;;;;12.03;9.10;;;;;;;15.93;55.71;97106.38;5033734;28;20475;-72
2022/05/01 10:50:54;;;;;;;12.07;10.27;;;;;;;16.06;55.98;97108.59;5033220;28;20178;-73
2022/05/01 10:53:20;;;;;;;12.27;10.43;;;;;;;15.50;56.16;97104.63;5016216;28;20538;-72
2022/05/01 10:55:48;;;;;;;11.10;9.40;;;;;;;15.36;56.84;97105.03;5016046;28;20195;-73
2022/05/01 10:58:27;;;;;;;11.60;9.70;;;;;;;14.82;57.96;97096.22;5015936;28;20547;-73
2022/05/01 11:00:55;;;;;;;14.07;9.53;;;;;;;14.80;58.07;97100.97;5020826;28;20178;-70
2022/05/01 11:03:29;;;;;;;12.53;9.63;;;;;;;14.52;58.60;97093.22;5033625;28;20277;-72
2022/05/01 11:06:00;;;;;;;10.57;8.50;;;;;;;14.88;56.15;97086.53;5034001;28;20229;-73
2022/05/01 11:08:28;;;;;;;13.07;8.73;;;;;;;15.35;55.78;97086.78;5033638;28;20191;-71
2022/05/01 11:10:58;;;;;;;10.57;8.03;;;;;;;16.10;53.65;97080.59;5033117;28;20203;-74
2022/05/01 11:13:31;;;;;;;11.60;8.40;;;;;;;16.55;51.93;97082.72;5032592;28;20585;-73
2022/05/01 11:15:57;;;;;;;11.77;8.87;;;;;;;16.18;51.99;97085.41;5032646;28;20321;-73
2022/05/01 11:18:34;;;;;;;10.70;8.50;;;;;;;15.98;52.79;97085.28;5032840;28;20191;-73
2022/05/01 11:21:22;;;;;;;11.00;8.97;;;;;;;15.67;52.57;97087.66;5033488;28;20178;-73
2022/05/01 11:24:10;;;;;;;10.73;8.73;;;;;;;15.23;52.62;97091.41;5019582;28;20185;-73
2022/05/01 11:26:35;;;;;;;9.57;8.30;;;;;;;15.38;52.65;97084.44;5033672;28;20538;-73
2022/05/01 11:29:13;;;;;;;12.10;8.93;;;;;;;15.52;52.78;97084.88;5033708;28;20186;-72
2022/05/01 11:31:42;;;;;;;12.03;8.57;;;;;;;15.45;53.18;97084.25;5015601;28;20182;-72
2022/05/01 11:34:16;;;;;;;13.90;8.70;;;;;;;15.50;52.52;97084.28;5032913;28;20207;-72
2022/05/01 11:36:57;;;;;;;10.60;8.37;;;;;;;16.54;51.25;97076.63;5028111;28;20247;-73
2022/05/01 11:39:42;;;;;;;10.40;8.00;;;;;;;17.35;50.44;97076.94;5032722;28;20194;-73
2022/05/01 11:42:32;;;;;;;13.07;8.32;;;;;;;17.93;47.83;97074.13;5032269;28;20190;-73
2022/05/01 11:45:01;;;;;;;9.73;7.47;;;;;;;18.01;47.43;97081.53;5032251;28;20194;-72
2022/05/01 11:47:27;;;;;;;12.10;8.40;;;;;;;16.83;49.95;97070.97;5032489;28;20277;-73
2022/05/01 11:49:53;;;;;;;14.25;9.23;;;;;;;16.22;50.95;97071.41;5032474;28;20187;-72
2022/05/01 11:52:22;;;;;;;10.10;8.00;;;;;;;16.93;49.98;97071.00;5015650;28;20252;-74
2022/05/01 11:54:51;;;;;;;10.63;8.37;;;;;;;17.12;49.07;97066.81;5032633;28;20183;-69